createdAt,value
2018-05-10T00:00:18.783Z,21.32
2018-05-10T00:01:18.759Z,21.29
2018-05-10T00:02:18.747Z,21.20
2018-05-10T00:03:18.733Z,21.20
2018-05-10T00:04:18.725Z,21.20
2018-05-10T00:05:18.714Z,21.19
2018-05-10T00:06:18.691Z,21.17
2018-05-10T00:07:18.677Z,21.13
2018-05-10T00:08:18.665Z,21.10
2018-05-10T00:09:18.652Z,21.11
2018-05-10T00:10:18.644Z,21.11
2018-05-10T00:11:18.621Z,21.13
2018-05-10T00:12:18.609Z,21.03
2018-05-10T00:13:18.596Z,21.01
2018-05-10T00:14:18.589Z,21.01
2018-05-10T00:15:18.574Z,20.95
2018-05-10T00:16:18.553Z,20.92
2018-05-10T00:17:18.541Z,20.88
2018-05-10T00:18:18.529Z,20.92
2018-05-10T00:19:18.513Z,20.92
2018-05-10T00:20:18.500Z,20.90
2018-05-10T00:21:18.485Z,20.89
2018-05-10T00:22:18.469Z,20.86
2018-05-10T00:23:18.463Z,20.85
2018-05-10T00:24:18.456Z,20.92
2018-05-10T00:25:18.432Z,20.83
2018-05-10T00:26:18.438Z,20.82
2018-05-10T00:27:18.405Z,20.83
2018-05-10T00:28:18.389Z,20.92
2018-05-10T00:29:19.128Z,20.80
2018-05-10T00:30:18.360Z,20.78
2018-05-10T00:31:18.346Z,20.80
2018-05-10T00:32:18.336Z,20.83
2018-05-10T00:33:18.333Z,20.88
2018-05-10T00:34:18.312Z,20.82
2018-05-10T00:35:18.316Z,20.75
2018-05-10T00:36:18.277Z,20.85
2018-05-10T00:37:18.265Z,20.77
2018-05-10T00:38:18.251Z,20.75
2018-05-10T00:39:18.246Z,20.77
2018-05-10T00:40:18.224Z,20.64
2018-05-10T00:41:18.209Z,20.73
2018-05-10T00:42:18.196Z,20.59
2018-05-10T00:43:18.184Z,20.60
2018-05-10T00:44:18.191Z,20.59
2018-05-10T00:45:18.151Z,20.63
2018-05-10T00:46:18.142Z,20.63
2018-05-10T00:47:18.127Z,20.59
2018-05-10T00:48:18.115Z,20.64
2018-05-10T00:49:18.119Z,20.53
2018-05-10T00:50:18.082Z,20.53
2018-05-10T00:51:18.075Z,20.56
2018-05-10T00:52:18.075Z,20.50
2018-05-10T00:53:18.061Z,20.49
2018-05-10T00:54:18.035Z,20.39
2018-05-10T00:55:18.016Z,20.36
2018-05-10T00:56:18.002Z,20.34
2018-05-10T00:57:17.986Z,20.37
2018-05-10T00:58:17.975Z,20.34
2018-05-10T00:59:17.959Z,20.40
2018-05-10T01:00:17.945Z,20.48
2018-05-10T01:01:17.929Z,20.40
2018-05-10T01:02:17.915Z,20.37
2018-05-10T01:03:17.902Z,20.49
2018-05-10T01:04:17.887Z,20.40
2018-05-10T01:05:17.883Z,20.40
2018-05-10T01:06:17.859Z,20.36
2018-05-10T01:07:17.844Z,20.36
2018-05-10T01:08:17.831Z,20.32
2018-05-10T01:09:17.831Z,20.30
2018-05-10T01:10:17.803Z,20.26
2018-05-10T01:11:17.792Z,20.30
2018-05-10T01:12:17.777Z,20.24
2018-05-10T01:13:17.762Z,20.26
2018-05-10T01:14:17.747Z,20.26
2018-05-10T01:15:17.733Z,20.12
2018-05-10T01:16:17.724Z,20.14
2018-05-10T01:17:17.707Z,20.17
2018-05-10T01:18:17.696Z,20.04
2018-05-10T01:19:17.677Z,20.18
2018-05-10T01:20:17.664Z,20.18
2018-05-10T01:21:17.664Z,20.14
2018-05-10T01:22:17.635Z,20.17
2018-05-10T01:23:17.622Z,20.11
2018-05-10T01:24:17.608Z,20.08
2018-05-10T01:25:17.596Z,20.00
2018-05-10T01:26:17.593Z,20.08
2018-05-10T01:27:17.564Z,20.11
2018-05-10T01:28:17.561Z,20.07
2018-05-10T01:29:17.535Z,20.07
2018-05-10T01:30:17.528Z,20.04
2018-05-10T01:31:17.512Z,19.93
2018-05-10T01:32:17.495Z,19.90
2018-05-10T01:33:17.476Z,19.82
2018-05-10T01:34:17.475Z,19.72
2018-05-10T01:35:17.464Z,19.70
2018-05-10T01:36:17.445Z,19.60
2018-05-10T01:37:17.420Z,19.63
2018-05-10T01:38:17.422Z,19.55
2018-05-10T01:39:17.395Z,19.52
2018-05-10T01:40:17.380Z,19.59
2018-05-10T01:41:17.369Z,19.57
2018-05-10T01:42:17.352Z,19.59
2018-05-10T01:43:17.334Z,19.66
2018-05-10T01:44:17.325Z,19.55
2018-05-10T01:45:17.305Z,19.64
2018-05-10T01:46:17.296Z,19.52
2018-05-10T01:47:17.279Z,19.57
2018-05-10T01:48:17.262Z,19.48
2018-05-10T01:49:17.250Z,19.55
2018-05-10T01:50:17.248Z,19.57
2018-05-10T01:51:17.224Z,19.49
2018-05-10T01:52:17.220Z,19.49
2018-05-10T01:53:17.193Z,19.42
2018-05-10T01:54:17.188Z,19.44
2018-05-10T01:55:17.166Z,19.42
2018-05-10T01:56:17.148Z,19.42
2018-05-10T01:57:17.131Z,19.48
2018-05-10T01:58:17.118Z,19.38
2018-05-10T01:59:17.105Z,19.38
2018-05-10T02:00:17.093Z,19.38
2018-05-10T02:01:17.135Z,19.30
2018-05-10T02:02:17.060Z,19.22
2018-05-10T02:03:17.100Z,19.12
2018-05-10T02:04:17.037Z,19.17
2018-05-10T02:05:17.022Z,19.20
2018-05-10T02:06:17.002Z,19.15
2018-05-10T02:07:16.987Z,19.07
2018-05-10T02:08:16.972Z,19.09
2018-05-10T02:09:16.959Z,19.11
2018-05-10T02:10:16.952Z,19.17
2018-05-10T02:11:16.928Z,19.19
2018-05-10T02:12:16.916Z,19.07
2018-05-10T02:13:16.902Z,19.07
2018-05-10T02:14:16.886Z,18.86
2018-05-10T02:15:16.924Z,18.89
2018-05-10T02:16:16.916Z,18.85
2018-05-10T02:17:16.905Z,18.76
2018-05-10T02:18:16.886Z,18.74
2018-05-10T02:19:16.863Z,18.73
2018-05-10T02:20:16.802Z,18.74
2018-05-10T02:21:16.790Z,18.73
2018-05-10T02:22:16.768Z,18.71
2018-05-10T02:23:16.773Z,18.78
2018-05-10T02:24:16.739Z,18.76
2018-05-10T02:25:16.740Z,18.82
2018-05-10T02:26:16.710Z,18.86
2018-05-10T02:27:16.696Z,18.81
2018-05-10T02:28:16.697Z,18.74
2018-05-10T02:29:16.688Z,18.78
2018-05-10T02:30:16.658Z,18.79
2018-05-10T02:31:16.651Z,18.78
2018-05-10T02:32:17.129Z,18.74
2018-05-10T02:33:16.610Z,18.73
2018-05-10T02:34:16.608Z,18.73
2018-05-10T02:35:16.583Z,18.74
2018-05-10T02:36:16.569Z,18.71
2018-05-10T02:37:16.548Z,18.74
2018-05-10T02:38:16.537Z,18.67
2018-05-10T02:39:16.526Z,18.71
2018-05-10T02:40:16.508Z,18.64
2018-05-10T02:41:16.495Z,18.53
2018-05-10T02:42:16.481Z,18.45
2018-05-10T02:43:16.464Z,18.49
2018-05-10T02:44:16.454Z,18.45
2018-05-10T02:45:16.457Z,18.31
2018-05-10T02:46:16.416Z,18.24
2018-05-10T02:47:16.402Z,18.24
2018-05-10T02:48:16.418Z,18.24
2018-05-10T02:49:16.372Z,18.24
2018-05-10T02:50:16.354Z,18.16
2018-05-10T02:51:16.342Z,18.09
2018-05-10T02:52:16.340Z,18.11
2018-05-10T02:53:16.331Z,18.11
2018-05-10T02:54:16.299Z,18.12
2018-05-10T02:55:16.283Z,18.13
2018-05-10T02:56:16.270Z,18.15
2018-05-10T02:57:16.268Z,18.12
2018-05-10T02:58:16.258Z,18.13
2018-05-10T02:59:16.235Z,18.09
2018-05-10T03:00:16.210Z,18.12
2018-05-10T03:01:16.195Z,18.02
2018-05-10T03:02:16.176Z,18.00
2018-05-10T03:03:16.193Z,18.00
2018-05-10T03:04:18.030Z,17.98
2018-05-10T03:05:16.142Z,17.95
2018-05-10T03:06:16.144Z,18.03
2018-05-10T03:07:16.116Z,17.97
2018-05-10T03:08:16.092Z,18.03
2018-05-10T03:09:16.168Z,18.03
2018-05-10T03:10:16.058Z,17.97
2018-05-10T03:11:16.059Z,17.94
2018-05-10T03:12:16.057Z,17.93
2018-05-10T03:13:16.065Z,17.87
2018-05-10T03:14:16.036Z,17.82
2018-05-10T03:15:15.993Z,17.86
2018-05-10T03:16:15.975Z,17.82
2018-05-10T03:17:15.970Z,17.90
2018-05-10T03:18:15.959Z,17.91
2018-05-10T03:19:15.919Z,17.93
2018-05-10T03:20:15.920Z,17.93
2018-05-10T03:21:15.901Z,17.93
2018-05-10T03:22:15.911Z,17.93
2018-05-10T03:23:15.861Z,17.91
2018-05-10T03:24:15.868Z,17.84
2018-05-10T03:25:15.869Z,17.75
2018-05-10T03:26:15.849Z,17.71
2018-05-10T03:27:15.826Z,17.71
2018-05-10T03:28:15.782Z,17.75
2018-05-10T03:29:15.764Z,17.72
2018-05-10T03:30:15.782Z,17.72
2018-05-10T03:31:15.734Z,17.71
2018-05-10T03:32:15.721Z,17.68
2018-05-10T03:33:15.767Z,17.65
2018-05-10T03:34:15.712Z,17.59
2018-05-10T03:35:15.676Z,17.47
2018-05-10T03:36:15.670Z,17.50
2018-05-10T03:37:15.642Z,17.42
2018-05-10T03:38:15.625Z,17.38
2018-05-10T03:39:15.614Z,17.47
2018-05-10T03:40:15.599Z,17.39
2018-05-10T03:41:15.584Z,17.39
2018-05-10T03:42:15.571Z,17.41
2018-05-10T03:43:15.554Z,17.34
2018-05-10T03:44:15.548Z,17.50
2018-05-10T03:45:15.521Z,17.28
2018-05-10T03:46:15.503Z,17.35
2018-05-10T03:47:15.492Z,17.31
2018-05-10T03:48:15.481Z,17.30
2018-05-10T03:49:15.457Z,17.35
2018-05-10T03:50:15.442Z,17.32
2018-05-10T03:51:15.425Z,17.23
2018-05-10T03:52:15.462Z,17.23
2018-05-10T03:53:15.416Z,17.10
2018-05-10T03:54:15.393Z,17.12
2018-05-10T03:55:15.363Z,17.13
2018-05-10T03:56:15.394Z,17.10
2018-05-10T03:57:15.350Z,17.04
2018-05-10T03:58:15.316Z,17.04
2018-05-10T03:59:15.299Z,17.10
2018-05-10T04:00:15.321Z,17.12
2018-05-10T04:01:15.282Z,17.17
2018-05-10T04:02:15.252Z,17.17
2018-05-10T04:03:15.238Z,17.13
2018-05-10T04:04:15.219Z,17.17
2018-05-10T04:05:15.205Z,17.01
2018-05-10T04:06:15.203Z,17.04
2018-05-10T04:07:15.172Z,17.07
2018-05-10T04:08:15.159Z,17.05
2018-05-10T04:09:15.148Z,17.16
2018-05-10T04:10:15.136Z,17.16
2018-05-10T04:11:15.115Z,17.14
2018-05-10T04:12:15.113Z,17.10
2018-05-10T04:13:15.075Z,17.04
2018-05-10T04:14:15.064Z,17.05
2018-05-10T04:15:15.046Z,17.07
2018-05-10T04:16:15.031Z,16.95
2018-05-10T04:17:15.015Z,16.99
2018-05-10T04:18:14.996Z,17.04
2018-05-10T04:19:14.988Z,17.04
2018-05-10T04:20:14.970Z,17.02
2018-05-10T04:21:14.959Z,17.07
2018-05-10T04:22:14.936Z,17.05
2018-05-10T04:23:14.917Z,17.12
2018-05-10T04:24:14.909Z,17.05
2018-05-10T04:25:14.897Z,17.19
2018-05-10T04:26:14.892Z,17.16
2018-05-10T04:27:14.855Z,17.07
2018-05-10T04:28:14.852Z,17.09
2018-05-10T04:29:14.827Z,17.16
2018-05-10T04:30:14.810Z,17.17
2018-05-10T04:31:14.861Z,17.20
2018-05-10T04:32:14.777Z,17.23
2018-05-10T04:33:14.767Z,17.17
2018-05-10T04:34:14.753Z,17.20
2018-05-10T04:35:15.169Z,17.22
2018-05-10T04:36:14.713Z,17.20
2018-05-10T04:37:14.698Z,17.28
2018-05-10T04:38:14.682Z,17.23
2018-05-10T04:39:14.665Z,17.34
2018-05-10T04:40:14.650Z,17.37
2018-05-10T04:41:14.636Z,17.31
2018-05-10T04:42:14.635Z,17.34
2018-05-10T04:43:14.608Z,17.34
2018-05-10T04:44:14.592Z,17.31
2018-05-10T04:45:14.574Z,17.35
2018-05-10T04:46:14.557Z,17.39
2018-05-10T04:47:14.544Z,17.39
2018-05-10T04:48:14.529Z,17.34
2018-05-10T04:49:14.510Z,17.28
2018-05-10T04:50:14.499Z,17.23
2018-05-10T04:51:14.497Z,17.09
2018-05-10T04:52:14.481Z,16.95
2018-05-10T04:53:14.454Z,17.02
2018-05-10T04:54:14.450Z,17.01
2018-05-10T04:55:14.416Z,16.74
2018-05-10T04:56:14.401Z,16.82
2018-05-10T04:57:14.386Z,16.76
2018-05-10T04:58:14.366Z,16.76
2018-05-10T04:59:14.356Z,16.74
2018-05-10T05:00:14.357Z,16.79
2018-05-10T05:01:14.341Z,16.79
2018-05-10T05:02:14.309Z,16.79
2018-05-10T05:03:14.287Z,16.77
2018-05-10T05:04:14.274Z,16.82
2018-05-10T05:05:14.257Z,16.83
2018-05-10T05:06:15.138Z,16.91
2018-05-10T05:07:14.227Z,16.86
2018-05-10T05:08:14.211Z,16.89
2018-05-10T05:09:14.196Z,16.94
2018-05-10T05:10:14.181Z,16.89
2018-05-10T05:11:14.164Z,16.86
2018-05-10T05:12:14.147Z,16.94
2018-05-10T05:13:14.134Z,16.97
2018-05-10T05:14:14.112Z,17.09
2018-05-10T05:15:14.103Z,17.05
2018-05-10T05:16:14.082Z,17.12
2018-05-10T05:17:14.069Z,17.17
2018-05-10T05:18:14.061Z,17.12
2018-05-10T05:19:14.035Z,17.07
2018-05-10T05:20:14.021Z,17.07
2018-05-10T05:21:14.008Z,16.99
2018-05-10T05:22:14.014Z,17.05
2018-05-10T05:23:13.970Z,16.99
2018-05-10T05:24:13.965Z,16.95
2018-05-10T05:25:13.937Z,16.98
2018-05-10T05:26:13.931Z,16.89
2018-05-10T05:27:13.913Z,16.86
2018-05-10T05:28:13.893Z,16.84
2018-05-10T05:29:13.876Z,16.89
2018-05-10T05:30:13.869Z,16.94
2018-05-10T05:31:13.850Z,16.87
2018-05-10T05:32:13.827Z,16.89
2018-05-10T05:33:13.816Z,16.91
2018-05-10T05:34:13.801Z,16.74
2018-05-10T05:35:13.785Z,16.73
2018-05-10T05:36:13.768Z,16.68
2018-05-10T05:37:13.751Z,16.58
2018-05-10T05:38:13.744Z,16.55
2018-05-10T05:39:13.720Z,16.59
2018-05-10T05:40:13.708Z,16.58
2018-05-10T05:41:13.787Z,16.55
2018-05-10T05:42:13.712Z,16.55
2018-05-10T05:43:13.726Z,16.61
2018-05-10T05:44:13.646Z,16.66
2018-05-10T05:45:13.624Z,16.73
2018-05-10T05:46:13.611Z,16.76
2018-05-10T05:47:13.594Z,16.77
2018-05-10T05:48:13.601Z,16.77
2018-05-10T05:49:13.566Z,16.83
2018-05-10T05:50:13.545Z,16.89
2018-05-10T05:51:13.558Z,16.94
2018-05-10T05:52:13.553Z,17.02
2018-05-10T05:53:13.522Z,16.97
2018-05-10T05:54:13.478Z,16.99
2018-05-10T05:55:13.520Z,17.09
2018-05-10T05:56:13.497Z,17.05
2018-05-10T05:57:13.435Z,17.10
2018-05-10T05:58:13.435Z,17.12
2018-05-10T05:59:13.408Z,17.09
2018-05-10T06:00:13.431Z,17.10
2018-05-10T06:01:13.380Z,17.12
2018-05-10T06:02:13.376Z,17.13
2018-05-10T06:03:13.369Z,17.19
2018-05-10T06:04:13.352Z,17.19
2018-05-10T06:05:13.305Z,17.23
2018-05-10T06:06:14.002Z,17.19
2018-05-10T06:07:13.277Z,17.13
2018-05-10T06:08:13.260Z,17.20
2018-05-10T06:09:13.245Z,17.32
2018-05-10T06:10:13.241Z,17.30
2018-05-10T06:11:13.220Z,17.32
2018-05-10T06:12:13.198Z,17.34
2018-05-10T06:13:13.181Z,17.35
2018-05-10T06:14:13.193Z,17.38
2018-05-10T06:15:13.159Z,17.27
2018-05-10T06:16:13.143Z,17.20
2018-05-10T06:17:13.157Z,17.12
2018-05-10T06:18:13.160Z,17.22
2018-05-10T06:19:13.084Z,17.14
2018-05-10T06:20:13.079Z,17.14
2018-05-10T06:21:13.054Z,17.09
2018-05-10T06:22:13.037Z,17.09
2018-05-10T06:23:13.026Z,17.05
2018-05-10T06:24:13.014Z,17.05
2018-05-10T06:25:13.037Z,17.14
2018-05-10T06:26:13.062Z,17.09
2018-05-10T06:27:12.975Z,17.10
2018-05-10T06:28:12.951Z,17.01
2018-05-10T06:29:12.956Z,17.01
2018-05-10T06:30:12.913Z,16.94
2018-05-10T06:31:12.897Z,16.83
2018-05-10T06:32:12.882Z,16.73
2018-05-10T06:33:12.870Z,16.74
2018-05-10T06:34:12.882Z,16.61
2018-05-10T06:35:12.905Z,16.58
2018-05-10T06:36:12.820Z,16.59
2018-05-10T06:37:13.657Z,16.43
2018-05-10T06:38:12.830Z,16.32
2018-05-10T06:39:12.797Z,16.41
2018-05-10T06:40:12.825Z,16.47
2018-05-10T06:41:12.740Z,16.49
2018-05-10T06:42:12.748Z,16.51
2018-05-10T06:43:12.713Z,16.58
2018-05-10T06:44:12.743Z,16.44
2018-05-10T06:45:12.766Z,16.58
2018-05-10T06:46:12.696Z,16.55
2018-05-10T06:47:12.700Z,16.65
2018-05-10T06:48:12.633Z,16.80
2018-05-10T06:49:12.630Z,16.79
2018-05-10T06:50:12.600Z,16.91
2018-05-10T06:51:12.596Z,16.86
2018-05-10T06:52:12.568Z,16.87
2018-05-10T06:53:12.548Z,16.92
2018-05-10T06:54:16.331Z,16.84
2018-05-10T06:55:12.523Z,16.87
2018-05-10T06:56:12.504Z,16.84
2018-05-10T06:57:12.485Z,16.99
2018-05-10T06:58:12.469Z,16.89
2018-05-10T06:59:12.455Z,17.02
2018-05-10T07:00:12.448Z,17.05
2018-05-10T07:01:12.440Z,17.23
2018-05-10T07:02:12.406Z,17.22
2018-05-10T07:03:13.181Z,17.31
2018-05-10T07:04:13.382Z,17.22
2018-05-10T07:05:12.359Z,17.23
2018-05-10T07:06:12.350Z,17.13
2018-05-10T07:07:12.416Z,17.09
2018-05-10T07:08:12.363Z,17.13
2018-05-10T07:09:12.294Z,17.13
2018-05-10T07:10:12.286Z,17.12
2018-05-10T07:11:12.316Z,17.05
2018-05-10T07:12:12.481Z,17.19
2018-05-10T07:13:12.238Z,17.12
2018-05-10T07:14:12.243Z,17.23
2018-05-10T07:15:12.209Z,17.19
2018-05-10T07:16:12.183Z,17.13
2018-05-10T07:17:12.231Z,17.12
2018-05-10T07:18:12.166Z,17.09
2018-05-10T07:19:12.136Z,17.09
2018-05-10T07:20:12.123Z,17.09
2018-05-10T07:21:12.115Z,17.20
2018-05-10T07:22:12.112Z,17.20
2018-05-10T07:23:12.131Z,17.23
2018-05-10T07:24:12.095Z,17.24
2018-05-10T07:25:12.129Z,17.34
2018-05-10T07:26:13.676Z,17.37
2018-05-10T07:27:12.030Z,17.47
2018-05-10T07:28:12.039Z,17.35
2018-05-10T07:29:12.027Z,17.46
2018-05-10T07:30:11.961Z,17.39
2018-05-10T07:31:11.950Z,17.47
2018-05-10T07:32:11.932Z,17.41
2018-05-10T07:33:11.974Z,17.42
2018-05-10T07:34:11.898Z,17.47
2018-05-10T07:35:11.881Z,17.44
2018-05-10T07:36:11.891Z,17.59
2018-05-10T07:37:11.882Z,17.54
2018-05-10T07:38:11.834Z,17.57
2018-05-10T07:39:11.825Z,17.71
2018-05-10T07:40:11.857Z,17.53
2018-05-10T07:41:11.796Z,17.57
2018-05-10T07:42:11.896Z,17.57
2018-05-10T07:43:11.764Z,17.72
2018-05-10T07:44:11.818Z,17.68
2018-05-10T07:45:11.759Z,17.71
2018-05-10T07:46:11.764Z,17.56
2018-05-10T07:47:11.708Z,17.50
2018-05-10T07:48:11.848Z,17.57
2018-05-10T07:49:11.672Z,17.50
2018-05-10T07:50:11.649Z,17.35
2018-05-10T07:51:11.662Z,17.39
2018-05-10T07:52:11.622Z,17.44
2018-05-10T07:53:11.644Z,17.35
2018-05-10T07:54:11.628Z,17.41
2018-05-10T07:55:11.633Z,17.59
2018-05-10T07:56:11.553Z,17.66
2018-05-10T07:57:11.536Z,17.66
2018-05-10T07:58:11.526Z,17.69
2018-05-10T07:59:11.508Z,17.82
2018-05-10T08:00:11.498Z,17.82
2018-05-10T08:01:11.475Z,17.84
2018-05-10T08:02:11.581Z,17.84
2018-05-10T08:03:11.451Z,17.82
2018-05-10T08:04:11.439Z,17.87
2018-05-10T08:05:11.412Z,17.97
2018-05-10T08:06:11.399Z,17.93
2018-05-10T08:07:11.385Z,17.87
2018-05-10T08:08:11.387Z,17.78
2018-05-10T08:09:11.415Z,17.75
2018-05-10T08:10:11.456Z,17.80
2018-05-10T08:11:11.328Z,17.98
2018-05-10T08:12:11.309Z,17.95
2018-05-10T08:13:11.294Z,18.18
2018-05-10T08:14:11.280Z,18.19
2018-05-10T08:15:11.257Z,18.27
2018-05-10T08:16:11.242Z,18.28
2018-05-10T08:17:11.254Z,18.28
2018-05-10T08:18:11.214Z,18.34
2018-05-10T08:19:11.199Z,18.39
2018-05-10T08:20:11.191Z,18.41
2018-05-10T08:21:11.166Z,18.41
2018-05-10T08:22:11.149Z,18.31
2018-05-10T08:23:11.132Z,18.23
2018-05-10T08:24:11.196Z,18.24
2018-05-10T08:25:11.103Z,18.26
2018-05-10T08:26:11.147Z,18.23
2018-05-10T08:27:11.100Z,18.11
2018-05-10T08:28:11.063Z,18.12
2018-05-10T08:29:11.041Z,18.02
2018-05-10T08:30:11.068Z,17.95
2018-05-10T08:31:11.085Z,18.09
2018-05-10T08:32:11.044Z,18.00
2018-05-10T08:33:11.507Z,18.09
2018-05-10T08:34:10.986Z,18.09
2018-05-10T08:35:10.953Z,18.09
2018-05-10T08:36:10.935Z,18.12
2018-05-10T08:37:10.924Z,18.16
2018-05-10T08:38:10.917Z,18.33
2018-05-10T08:39:10.902Z,18.33
2018-05-10T08:40:10.914Z,18.42
2018-05-10T08:41:10.858Z,18.49
2018-05-10T08:42:10.843Z,18.46
2018-05-10T08:43:10.937Z,18.45
2018-05-10T08:44:10.814Z,18.51
2018-05-10T08:45:10.880Z,18.37
2018-05-10T08:46:10.787Z,18.36
2018-05-10T08:47:10.814Z,18.41
2018-05-10T08:48:10.801Z,18.41
2018-05-10T08:49:10.769Z,18.42
2018-05-10T08:50:10.772Z,18.39
2018-05-10T08:51:10.753Z,18.41
2018-05-10T08:52:11.647Z,18.34
2018-05-10T08:53:10.732Z,18.42
2018-05-10T08:54:10.716Z,18.46
2018-05-10T08:55:11.143Z,18.42
2018-05-10T08:56:10.685Z,18.55
2018-05-10T08:57:10.613Z,18.60
2018-05-10T08:58:10.601Z,18.74
2018-05-10T08:59:11.198Z,18.73
2018-05-10T09:00:10.618Z,18.78
2018-05-10T09:01:10.552Z,18.92
2018-05-10T09:02:10.541Z,18.85
2018-05-10T09:03:10.549Z,18.91
2018-05-10T09:04:10.537Z,18.91
2018-05-10T09:05:10.493Z,18.85
2018-05-10T09:06:10.477Z,18.82
2018-05-10T09:07:10.466Z,18.73
2018-05-10T09:08:10.446Z,18.78
2018-05-10T09:09:10.466Z,18.66
2018-05-10T09:10:10.415Z,18.55
2018-05-10T09:11:10.403Z,18.60
2018-05-10T09:12:10.434Z,18.57
2018-05-10T09:13:10.372Z,18.46
2018-05-10T09:14:10.356Z,18.51
2018-05-10T09:15:10.344Z,18.64
2018-05-10T09:16:10.328Z,18.60
2018-05-10T09:17:10.308Z,18.68
2018-05-10T09:18:10.294Z,18.76
2018-05-10T09:19:10.277Z,18.82
2018-05-10T09:20:10.271Z,18.81
2018-05-10T09:21:10.260Z,18.81
2018-05-10T09:22:10.233Z,18.91
2018-05-10T09:23:10.250Z,18.96
2018-05-10T09:24:10.208Z,18.83
2018-05-10T09:25:10.202Z,18.91
2018-05-10T09:26:10.185Z,18.86
2018-05-10T09:27:10.636Z,18.89
2018-05-10T09:28:10.158Z,18.78
2018-05-10T09:29:10.131Z,18.78
2018-05-10T09:30:10.123Z,18.74
2018-05-10T09:31:10.185Z,18.78
2018-05-10T09:32:10.092Z,18.78
2018-05-10T09:33:10.072Z,18.83
2018-05-10T09:34:10.056Z,18.66
2018-05-10T09:35:10.102Z,18.74
2018-05-10T09:36:10.743Z,18.60
2018-05-10T09:37:10.713Z,18.57
2018-05-10T09:38:11.661Z,18.53
2018-05-10T09:39:10.063Z,18.45
2018-05-10T09:40:10.019Z,18.45
2018-05-10T09:41:09.959Z,18.28
2018-05-10T09:42:09.945Z,18.27
2018-05-10T09:43:09.959Z,18.34
2018-05-10T09:44:10.028Z,18.48
2018-05-10T09:45:10.695Z,18.37
2018-05-10T09:46:09.883Z,18.45
2018-05-10T09:47:11.024Z,18.58
2018-05-10T09:48:09.896Z,18.51
2018-05-10T09:49:09.848Z,18.53
2018-05-10T09:50:09.869Z,18.55
2018-05-10T09:51:09.884Z,18.45
2018-05-10T09:52:10.692Z,18.58
2018-05-10T09:53:09.797Z,18.61
2018-05-10T09:54:09.933Z,18.63
2018-05-10T09:55:10.719Z,18.58
2018-05-10T09:56:13.928Z,18.58
2018-05-10T09:57:09.714Z,18.45
2018-05-10T09:58:10.278Z,18.42
2018-05-10T09:59:09.735Z,18.42
2018-05-10T10:00:09.667Z,18.48
2018-05-10T10:01:10.308Z,18.45
2018-05-10T10:02:09.686Z,18.39
2018-05-10T10:03:09.668Z,18.33
2018-05-10T10:04:09.664Z,18.36
2018-05-10T10:05:09.602Z,18.37
2018-05-10T10:06:09.651Z,18.27
2018-05-10T10:07:09.565Z,18.18
2018-05-10T10:08:09.546Z,18.11
2018-05-10T10:09:09.582Z,18.12
2018-05-10T10:10:09.516Z,18.06
2018-05-10T10:11:10.223Z,18.11
2018-05-10T10:12:09.485Z,18.06
2018-05-10T10:13:09.525Z,18.03
2018-05-10T10:14:09.531Z,17.93
2018-05-10T10:15:10.353Z,17.90
2018-05-10T10:16:09.474Z,17.82
2018-05-10T10:17:09.405Z,17.79
2018-05-10T10:18:09.402Z,17.78
2018-05-10T10:19:09.382Z,17.82
2018-05-10T10:20:09.540Z,17.93
2018-05-10T10:21:09.349Z,17.87
2018-05-10T10:22:09.384Z,17.86
2018-05-10T10:23:09.313Z,17.95
2018-05-10T10:24:09.301Z,17.88
2018-05-10T10:25:09.297Z,17.80
2018-05-10T10:26:09.266Z,17.80
2018-05-10T10:27:09.263Z,17.76
2018-05-10T10:28:09.313Z,17.69
2018-05-10T10:29:09.225Z,17.66
2018-05-10T10:30:09.246Z,17.54
2018-05-10T10:31:10.515Z,17.50
2018-05-10T10:32:09.217Z,17.47
2018-05-10T10:33:09.154Z,17.52
2018-05-10T10:34:09.149Z,17.38
2018-05-10T10:35:09.134Z,17.42
2018-05-10T10:36:09.108Z,17.41
2018-05-10T10:37:09.136Z,17.30
2018-05-10T10:38:09.148Z,17.31
2018-05-10T10:39:09.062Z,17.28
2018-05-10T10:40:09.090Z,17.23
2018-05-10T10:41:09.032Z,17.19
2018-05-10T10:42:09.009Z,17.20
2018-05-10T10:43:09.004Z,17.24
2018-05-10T10:44:09.046Z,17.16
2018-05-10T10:45:09.016Z,17.31
2018-05-10T10:46:09.066Z,17.32
2018-05-10T10:47:08.934Z,17.34
2018-05-10T10:48:08.917Z,17.35
2018-05-10T10:49:08.905Z,17.35
2018-05-10T10:50:08.883Z,17.35
2018-05-10T10:51:09.058Z,17.31
2018-05-10T10:52:08.853Z,17.38
2018-05-10T10:53:08.835Z,17.31
2018-05-10T10:54:08.818Z,17.31
2018-05-10T10:55:08.804Z,17.35
2018-05-10T10:56:08.788Z,17.31
2018-05-10T10:57:08.772Z,17.17
2018-05-10T10:58:08.753Z,17.27
2018-05-10T10:59:08.744Z,17.31
2018-05-10T11:00:08.821Z,17.23
2018-05-10T11:01:08.712Z,17.28
2018-05-10T11:02:08.697Z,17.31
2018-05-10T11:03:08.677Z,17.31
2018-05-10T11:04:08.660Z,17.30
2018-05-10T11:05:08.650Z,17.19
2018-05-10T11:06:08.630Z,17.28
2018-05-10T11:07:08.642Z,17.05
2018-05-10T11:08:09.013Z,17.07
2018-05-10T11:09:11.953Z,16.95
2018-05-10T11:10:08.563Z,16.91
2018-05-10T11:11:08.559Z,16.84
2018-05-10T11:12:08.610Z,16.74
2018-05-10T11:13:08.534Z,16.76
2018-05-10T11:14:08.502Z,16.86
2018-05-10T11:15:08.601Z,16.72
2018-05-10T11:16:08.465Z,16.72
2018-05-10T11:17:08.450Z,16.54
2018-05-10T11:18:08.439Z,16.51
2018-05-10T11:19:08.422Z,16.51
2018-05-10T11:20:08.406Z,16.54
2018-05-10T11:21:08.393Z,16.50
2018-05-10T11:22:08.448Z,16.44
2018-05-10T11:23:08.356Z,16.37
2018-05-10T11:24:08.341Z,16.36
2018-05-10T11:25:08.373Z,16.24
2018-05-10T11:26:08.334Z,16.28
2018-05-10T11:27:08.495Z,16.21
2018-05-10T11:28:08.292Z,16.22
2018-05-10T11:29:08.297Z,16.18
2018-05-10T11:30:08.410Z,16.18
2018-05-10T11:31:08.228Z,16.21
2018-05-10T11:32:08.222Z,16.06
2018-05-10T11:33:08.233Z,16.03
2018-05-10T11:34:08.183Z,16.12
2018-05-10T11:35:08.156Z,16.10
2018-05-10T11:36:08.168Z,16.16
2018-05-10T11:37:08.193Z,16.18
2018-05-10T11:38:08.124Z,16.12
2018-05-10T11:39:08.097Z,16.21
2018-05-10T11:40:08.069Z,16.17
2018-05-10T11:41:08.053Z,16.18
2018-05-10T11:42:08.036Z,16.25
2018-05-10T11:43:08.019Z,16.17
2018-05-10T11:44:08.005Z,16.29
2018-05-10T11:45:07.990Z,16.31
2018-05-10T11:46:07.976Z,16.29
2018-05-10T11:47:07.957Z,16.32
2018-05-10T11:48:07.941Z,16.31
2018-05-10T11:49:07.937Z,16.37
2018-05-10T11:50:07.903Z,16.41
2018-05-10T11:51:07.890Z,16.40
2018-05-10T11:52:07.878Z,16.44
2018-05-10T11:53:07.857Z,16.40
2018-05-10T11:54:07.839Z,16.32
2018-05-10T11:55:07.855Z,16.40
2018-05-10T11:56:07.825Z,16.34
2018-05-10T11:57:07.824Z,16.32
2018-05-10T11:58:07.782Z,16.29
2018-05-10T11:59:07.770Z,16.29
2018-05-10T12:00:07.752Z,16.32
2018-05-10T12:01:07.727Z,16.29
2018-05-10T12:02:07.710Z,16.22
2018-05-10T12:03:07.742Z,16.24
2018-05-10T12:04:07.680Z,16.18
2018-05-10T12:05:07.655Z,16.18
2018-05-10T12:06:07.718Z,16.25
2018-05-10T12:07:07.624Z,16.17
2018-05-10T12:08:07.608Z,16.22
2018-05-10T12:09:07.589Z,16.06
2018-05-10T12:10:07.635Z,16.22
2018-05-10T12:11:07.557Z,16.06
2018-05-10T12:12:07.546Z,16.08
2018-05-10T12:13:07.527Z,16.02
2018-05-10T12:14:07.509Z,16.00
2018-05-10T12:15:07.497Z,16.09
2018-05-10T12:16:07.484Z,16.03
2018-05-10T12:17:07.457Z,16.12
2018-05-10T12:18:07.442Z,16.05
2018-05-10T12:19:08.251Z,16.13
2018-05-10T12:20:07.506Z,16.13
2018-05-10T12:21:07.393Z,16.10
2018-05-10T12:22:07.373Z,16.12
2018-05-10T12:23:07.800Z,16.16
2018-05-10T12:24:07.735Z,16.13
2018-05-10T12:25:07.324Z,16.17
2018-05-10T12:26:07.307Z,16.17
2018-05-10T12:27:07.292Z,16.17
2018-05-10T12:28:07.323Z,16.21
2018-05-10T12:29:07.257Z,16.05
2018-05-10T12:30:07.241Z,16.02
2018-05-10T12:31:07.257Z,15.90
2018-05-10T12:32:07.218Z,15.90
2018-05-10T12:33:07.194Z,15.91
2018-05-10T12:34:07.241Z,15.88
2018-05-10T12:35:07.157Z,15.83
2018-05-10T12:36:07.143Z,15.88
2018-05-10T12:37:07.126Z,15.81
2018-05-10T12:38:07.135Z,15.85
2018-05-10T12:39:07.096Z,15.88
2018-05-10T12:40:07.083Z,15.84
2018-05-10T12:41:07.063Z,15.81
2018-05-10T12:42:07.043Z,15.75
2018-05-10T12:43:07.024Z,15.66
2018-05-10T12:44:07.033Z,15.62
2018-05-10T12:45:07.005Z,15.65
2018-05-10T12:46:06.999Z,15.66
2018-05-10T12:47:06.965Z,15.67
2018-05-10T12:48:07.027Z,15.66
2018-05-10T12:49:06.925Z,15.63
2018-05-10T12:50:06.908Z,15.63
2018-05-10T12:51:06.892Z,15.54
2018-05-10T12:52:06.872Z,15.60